Time;durP1;ratioP1;P1;durP2;ratioP2;P2;SDS_P1;SDS_P2;PMS_P1;PMS_P2;Temp;Humidity;BMP_temperature;BMP_pressure;BME280_temperature;BME280_humidity;BME280_pressure;Samples;Min_cycle;Max_cycle;Signal;HPM_P1;HPM_P2
2023/12/16 00:00:15;;;;;;;2.88;2.40;;;;;;;;;;5078291;28;20296;-84
2023/12/16 00:02:44;;;;;;;3.08;2.45;;;;;;;;;;5078168;28;20197;-83
2023/12/16 00:05:12;;;;;;;3.38;2.80;;;;;;;;;;5078024;28;20211;-81
2023/12/16 00:07:39;;;;;;;2.67;2.47;;;;;;;;;;5078000;28;20307;-84
2023/12/16 00:10:09;;;;;;;5.10;3.50;;;;;;;;;;5078454;28;20208;-84
2023/12/16 00:12:38;;;;;;;3.47;3.17;;;;;;;;;;5078374;28;20247;-84
2023/12/16 00:15:09;;;;;;;2.72;2.47;;;;;;;;;;5078038;28;20229;-81
2023/12/16 00:17:36;;;;;;;3.63;2.90;;;;;;;;;;5078239;28;20310;-82
2023/12/16 00:20:04;;;;;;;5.90;3.83;;;;;;;;;;5078139;28;20582;-81
2023/12/16 00:22:32;;;;;;;4.63;3.00;;;;;;;;;;5077998;28;20284;-83
2023/12/16 00:24:59;;;;;;;4.03;2.85;;;;;;;;;;5078109;28;20196;-83
2023/12/16 00:27:27;;;;;;;3.65;3.10;;;;;;;;;;5077530;28;20225;-84
2023/12/16 00:29:55;;;;;;;4.68;2.92;;;;;;;;;;5077375;28;20200;-82
2023/12/16 00:32:23;;;;;;;4.85;2.85;;;;;;;;;;5077323;28;20227;-84
2023/12/16 00:34:50;;;;;;;2.97;2.70;;;;;;;;;;5077504;28;20296;-83
2023/12/16 00:37:18;;;;;;;4.95;3.55;;;;;;;;;;5077640;28;20227;-81
2023/12/16 00:39:45;;;;;;;3.08;2.78;;;;;;;;;;5077721;28;20207;-83
2023/12/16 00:42:13;;;;;;;3.08;2.50;;;;;;;;;;5077631;28;20207;-84
2023/12/16 00:44:40;;;;;;;2.83;2.47;;;;;;;;;;5077655;28;20207;-82
2023/12/16 00:47:09;;;;;;;3.65;3.20;;;;;;;;;;5077286;28;20585;-83
2023/12/16 00:49:36;;;;;;;3.45;2.78;;;;;;;;;;5077475;28;20538;-80
2023/12/16 00:52:05;;;;;;;2.58;2.38;;;;;;;;;;5077130;28;20227;-83
2023/12/16 00:54:32;;;;;;;3.55;2.13;;;;;;;;;;5077322;28;20205;-82
2023/12/16 00:57:00;;;;;;;2.85;2.28;;;;;;;;;;5078010;28;20245;-83
2023/12/16 00:59:27;;;;;;;6.63;2.85;;;;;;;;;;5079864;28;20201;-83
2023/12/16 01:01:55;;;;;;;6.82;3.30;;;;;;;;;;5080573;28;20232;-84
2023/12/16 01:04:24;;;;;;;2.80;2.55;;;;;;;;;;5080417;28;20240;-81
2023/12/16 01:06:51;;;;;;;3.67;2.42;;;;;;;;;;5080766;28;20335;-83
2023/12/16 01:09:18;;;;;;;3.70;3.00;;;;;;;;;;5079610;28;20653;-80
2023/12/16 01:11:47;;;;;;;3.67;2.20;;;;;;;;;;5080262;28;20652;-83
2023/12/16 01:14:14;;;;;;;3.60;3.17;;;;;;;;;;5081158;28;20295;-84
2023/12/16 01:16:42;;;;;;;2.40;2.20;;;;;;;;;;5077663;28;20271;-84
2023/12/16 01:19:09;;;;;;;3.47;2.40;;;;;;;;;;5060301;28;20205;-84
2023/12/16 01:21:43;;;;;;;5.35;3.05;;;;;;;;;;5060195;28;20731;-82
2023/12/16 01:24:11;;;;;;;3.45;3.15;;;;;;;;;;5060629;28;20257;-83
2023/12/16 01:26:38;;;;;;;3.40;2.72;;;;;;;;;;5059886;28;20285;-84
2023/12/16 01:29:06;;;;;;;2.92;2.40;;;;;;;;;;5060079;28;20202;-83
2023/12/16 01:31:33;;;;;;;4.30;2.50;;;;;;;;;;5059366;28;20572;-81
2023/12/16 01:34:00;;;;;;;3.25;2.63;;;;;;;;;;5059719;28;20587;-83
2023/12/16 01:36:28;;;;;;;3.50;3.20;;;;;;;;;;5059061;28;20316;-84
2023/12/16 01:38:57;;;;;;;4.65;3.58;;;;;;;;;;5059768;28;20273;-83
2023/12/16 01:41:24;;;;;;;5.20;3.10;;;;;;;;;;5058446;28;20667;-82
2023/12/16 01:43:52;;;;;;;3.72;3.00;;;;;;;;;;5058946;28;20220;-83
2023/12/16 01:46:20;;;;;;;3.33;3.03;;;;;;;;;;5059029;28;20205;-82
2023/12/16 01:48:48;;;;;;;3.53;3.20;;;;;;;;;;5059222;28;20288;-83
2023/12/16 01:51:15;;;;;;;4.65;3.03;;;;;;;;;;5059354;28;20746;-83
2023/12/16 01:53:43;;;;;;;4.88;3.53;;;;;;;;;;5059089;28;20221;-84
2023/12/16 01:56:12;;;;;;;4.32;3.15;;;;;;;;;;5059087;28;20296;-84
2023/12/16 01:58:40;;;;;;;3.55;3.00;;;;;;;;;;5059091;28;20206;-82
2023/12/16 02:01:08;;;;;;;4.55;3.28;;;;;;;;;;5058828;28;20265;-84
2023/12/16 02:03:37;;;;;;;6.03;3.20;;;;;;;;;;5058784;28;20201;-82
2023/12/16 02:06:06;;;;;;;3.10;2.83;;;;;;;;;;5058631;28;20197;-84
2023/12/16 02:08:33;;;;;;;4.93;3.72;;;;;;;;;;5059149;28;20237;-84
2023/12/16 02:11:01;;;;;;;5.80;4.30;;;;;;;;;;5059897;28;20297;-82
2023/12/16 02:13:30;;;;;;;3.53;3.22;;;;;;;;;;5058503;28;20340;-83
2023/12/16 02:15:57;;;;;;;3.78;2.97;;;;;;;;;;5058897;28;20856;-83
2023/12/16 02:18:26;;;;;;;3.65;3.13;;;;;;;;;;5058418;28;20312;-83
2023/12/16 02:20:53;;;;;;;4.45;3.15;;;;;;;;;;5059247;28;20654;-82
2023/12/16 02:23:22;;;;;;;3.10;2.80;;;;;;;;;;5058678;28;20288;-84
2023/12/16 02:25:50;;;;;;;2.60;2.40;;;;;;;;;;5058465;28;20206;-81
2023/12/16 02:28:17;;;;;;;4.13;3.28;;;;;;;;;;5058731;28;20292;-83
2023/12/16 02:30:45;;;;;;;4.03;2.80;;;;;;;;;;5059008;28;20204;-84
2023/12/16 02:33:12;;;;;;;2.65;2.45;;;;;;;;;;5058183;28;20236;-83
2023/12/16 02:35:42;;;;;;;2.80;2.42;;;;;;;;;;5057737;28;20198;-80
2023/12/16 02:38:09;;;;;;;3.63;3.13;;;;;;;;;;5062702;28;20843;-81
2023/12/16 02:40:42;;;;;;;3.42;3.05;;;;;;;;;;5078042;28;20300;-81
2023/12/16 02:43:09;;;;;;;2.78;2.58;;;;;;;;;;5078320;28;20211;-83
2023/12/16 02:45:37;;;;;;;2.53;2.22;;;;;;;;;;5078488;28;20287;-83
2023/12/16 02:48:05;;;;;;;2.75;2.55;;;;;;;;;;5078389;28;20248;-81
2023/12/16 02:50:32;;;;;;;4.45;3.10;;;;;;;;;;5078436;28;20300;-82
2023/12/16 02:52:59;;;;;;;4.03;3.05;;;;;;;;;;5078414;28;20261;-83
2023/12/16 02:55:27;;;;;;;3.40;3.13;;;;;;;;;;5077888;28;20201;-83
2023/12/16 02:57:56;;;;;;;3.03;2.28;;;;;;;;;;5078120;28;20221;-83
2023/12/16 03:00:23;;;;;;;3.47;2.80;;;;;;;;;;5078172;28;20235;-83
2023/12/16 03:02:51;;;;;;;3.92;2.40;;;;;;;;;;5078241;28;20285;-83
2023/12/16 03:05:18;;;;;;;3.35;2.35;;;;;;;;;;5078770;28;20272;-83
2023/12/16 03:07:46;;;;;;;2.45;2.17;;;;;;;;;;5078031;28;20312;-83
2023/12/16 03:10:13;;;;;;;2.58;2.33;;;;;;;;;;5078535;28;20648;-83
2023/12/16 03:12:41;;;;;;;5.05;2.63;;;;;;;;;;5077815;28;20229;-83
2023/12/16 03:15:10;;;;;;;3.47;3.15;;;;;;;;;;5073622;28;20204;-83
2023/12/16 03:17:38;;;;;;;3.78;2.65;;;;;;;;;;5058190;28;20225;-83
2023/12/16 03:20:08;;;;;;;2.97;2.50;;;;;;;;;;5058274;28;20265;-84
2023/12/16 03:22:35;;;;;;;4.05;2.83;;;;;;;;;;5057526;28;20227;-81
2023/12/16 03:25:03;;;;;;;4.68;3.30;;;;;;;;;;5057805;28;20277;-81
2023/12/16 03:27:30;;;;;;;4.15;2.67;;;;;;;;;;5057678;28;20232;-84
2023/12/16 03:29:58;;;;;;;3.13;2.47;;;;;;;;;;5058517;28;20206;-84
2023/12/16 03:32:26;;;;;;;5.35;3.00;;;;;;;;;;5056003;28;20201;-80
2023/12/16 03:34:54;;;;;;;5.68;2.58;;;;;;;;;;5056739;28;20232;-84
2023/12/16 03:37:21;;;;;;;3.05;2.33;;;;;;;;;;5057277;28;20245;-84
2023/12/16 03:39:49;;;;;;;3.63;3.15;;;;;;;;;;5057567;28;20248;-81
2023/12/16 03:42:16;;;;;;;5.35;3.50;;;;;;;;;;5057350;28;20233;-84
2023/12/16 03:44:46;;;;;;;2.83;2.60;;;;;;;;;;5057152;28;20285;-83
2023/12/16 03:47:14;;;;;;;3.15;2.08;;;;;;;;;;5057939;28;20232;-84
2023/12/16 03:49:43;;;;;;;2.53;1.98;;;;;;;;;;5057220;28;20580;-84
2023/12/16 03:52:11;;;;;;;3.17;2.03;;;;;;;;;;5057808;28;20697;-83
2023/12/16 03:54:40;;;;;;;2.78;2.20;;;;;;;;;;5057878;28;20221;-83
2023/12/16 03:57:07;;;;;;;3.25;2.10;;;;;;;;;;5058107;28;20721;-82
2023/12/16 03:59:34;;;;;;;3.85;2.30;;;;;;;;;;5057628;28;20233;-83
2023/12/16 04:02:01;;;;;;;2.85;2.45;;;;;;;;;;5057031;28;20569;-80
2023/12/16 04:04:29;;;;;;;2.85;2.58;;;;;;;;;;5057700;28;20229;-83
2023/12/16 04:07:00;;;;;;;2.42;2.13;;;;;;;;;;5057622;28;20267;-83
2023/12/16 04:09:28;;;;;;;2.60;1.88;;;;;;;;;;5057227;28;20189;-83
2023/12/16 04:11:55;;;;;;;3.83;3.05;;;;;;;;;;5057969;28;20300;-81
2023/12/16 04:14:23;;;;;;;2.45;2.25;;;;;;;;;;5056787;28;20257;-84
2023/12/16 04:16:50;;;;;;;1.88;1.75;;;;;;;;;;5057399;28;20226;-83
2023/12/16 04:19:18;;;;;;;2.83;2.58;;;;;;;;;;5057692;28;20193;-83
2023/12/16 04:21:45;;;;;;;2.72;2.53;;;;;;;;;;5057649;28;20229;-82
2023/12/16 04:24:14;;;;;;;1.65;1.55;;;;;;;;;;5056752;28;20285;-84
2023/12/16 04:26:42;;;;;;;2.25;2.10;;;;;;;;;;5057046;28;20228;-81
2023/12/16 04:29:09;;;;;;;2.20;1.90;;;;;;;;;;5055632;28;20244;-84
2023/12/16 04:31:38;;;;;;;2.40;2.17;;;;;;;;;;5056154;28;20229;-83
2023/12/16 04:34:05;;;;;;;2.88;2.17;;;;;;;;;;5056767;28;20804;-83
2023/12/16 04:36:33;;;;;;;4.70;3.03;;;;;;;;;;5056752;28;20236;-84
2023/12/16 04:39:00;;;;;;;4.30;2.42;;;;;;;;;;5056696;28;20308;-81
2023/12/16 04:41:29;;;;;;;2.13;1.92;;;;;;;;;;5056894;28;20697;-82
2023/12/16 04:43:57;;;;;;;2.88;2.00;;;;;;;;;;5058918;28;20702;-83
2023/12/16 04:46:24;;;;;;;2.20;1.98;;;;;;;;;;5060042;28;20257;-81
2023/12/16 04:48:52;;;;;;;2.88;1.90;;;;;;;;;;5060670;28;20789;-81
2023/12/16 04:51:21;;;;;;;1.70;1.60;;;;;;;;;;5060336;28;20561;-82
2023/12/16 04:53:49;;;;;;;2.47;1.92;;;;;;;;;;5059837;28;20265;-82
2023/12/16 04:56:16;;;;;;;2.05;1.52;;;;;;;;;;5059717;28;20284;-83
2023/12/16 04:58:45;;;;;;;2.70;2.15;;;;;;;;;;5060503;28;20240;-83
2023/12/16 05:01:12;;;;;;;3.13;2.00;;;;;;;;;;5060185;28;20229;-83
2023/12/16 05:03:42;;;;;;;2.22;2.13;;;;;;;;;;5059065;28;20210;-82
2023/12/16 05:06:10;;;;;;;2.63;1.98;;;;;;;;;;5059445;28;20197;-83
2023/12/16 05:08:37;;;;;;;2.63;2.00;;;;;;;;;;5058689;28;20284;-82
2023/12/16 05:11:05;;;;;;;2.92;1.80;;;;;;;;;;5059088;28;20576;-83
2023/12/16 05:13:32;;;;;;;1.90;1.77;;;;;;;;;;5059623;28;20201;-81
2023/12/16 05:16:01;;;;;;;1.40;1.30;;;;;;;;;;5059939;28;20232;-84
2023/12/16 05:18:29;;;;;;;2.22;2.03;;;;;;;;;;5059788;28;20229;-82
2023/12/16 05:20:56;;;;;;;1.77;1.67;;;;;;;;;;5059235;28;20269;-81
2023/12/16 05:23:24;;;;;;;1.52;1.42;;;;;;;;;;5058347;28;20240;-83
2023/12/16 05:25:51;;;;;;;1.83;1.73;;;;;;;;;;5059209;28;20666;-82
2023/12/16 05:28:19;;;;;;;1.85;1.75;;;;;;;;;;5060056;28;20317;-82
2023/12/16 05:30:46;;;;;;;3.40;2.10;;;;;;;;;;5059064;28;20635;-84
2023/12/16 05:33:15;;;;;;;3.40;2.47;;;;;;;;;;5059234;28;20229;-84
2023/12/16 05:35:42;;;;;;;2.33;2.00;;;;;;;;;;5058725;28;20258;-83
2023/12/16 05:38:10;;;;;;;2.95;2.65;;;;;;;;;;5059526;28;20253;-83
2023/12/16 05:40:37;;;;;;;2.83;2.50;;;;;;;;;;5059160;28;20261;-82
2023/12/16 05:43:05;;;;;;;2.80;2.08;;;;;;;;;;5059130;28;20734;-82
2023/12/16 05:45:32;;;;;;;2.78;2.05;;;;;;;;;;5059435;28;20276;-83
2023/12/16 05:48:00;;;;;;;2.80;2.08;;;;;;;;;;5059358;28;20308;-83
2023/12/16 05:50:28;;;;;;;1.90;1.75;;;;;;;;;;5059900;28;20288;-82
2023/12/16 05:52:56;;;;;;;2.92;1.88;;;;;;;;;;5059610;28;20225;-83
2023/12/16 05:55:23;;;;;;;6.22;3.13;;;;;;;;;;5058420;28;20697;-83
2023/12/16 05:57:51;;;;;;;1.98;1.70;;;;;;;;;;5058517;28;20316;-84
2023/12/16 06:00:19;;;;;;;2.40;1.70;;;;;;;;;;5058826;28;20292;-83
2023/12/16 06:02:47;;;;;;;4.18;2.53;;;;;;;;;;5058993;28;20201;-84
2023/12/16 06:05:14;;;;;;;2.95;2.00;;;;;;;;;;5059485;28;20261;-83
2023/12/16 06:07:43;;;;;;;2.58;2.35;;;;;;;;;;5059226;28;20223;-83
2023/12/16 06:10:11;;;;;;;4.05;2.00;;;;;;;;;;5059464;28;20288;-83
2023/12/16 06:12:39;;;;;;;2.38;1.80;;;;;;;;;;5058857;28;20208;-80
2023/12/16 06:15:08;;;;;;;6.13;2.28;;;;;;;;;;5057708;28;20225;-79
2023/12/16 06:17:36;;;;;;;4.15;2.47;;;;;;;;;;5057683;28;20311;-83
2023/12/16 06:20:04;;;;;;;3.25;1.73;;;;;;;;;;5058638;28;20198;-83
2023/12/16 06:22:32;;;;;;;2.25;1.67;;;;;;;;;;5058981;28;20204;-82
2023/12/16 06:25:01;;;;;;;7.85;2.58;;;;;;;;;;5059082;28;20208;-82
2023/12/16 06:27:28;;;;;;;3.22;1.92;;;;;;;;;;5059107;28;20261;-83
2023/12/16 06:29:56;;;;;;;3.88;2.35;;;;;;;;;;5058266;28;20259;-83
2023/12/16 06:32:23;;;;;;;2.38;1.90;;;;;;;;;;5058352;28;20239;-83
2023/12/16 06:34:51;;;;;;;3.75;2.20;;;;;;;;;;5057456;28;20270;-83
2023/12/16 06:37:18;;;;;;;2.35;1.70;;;;;;;;;;5058929;28;20678;-83
2023/12/16 06:39:46;;;;;;;1.52;1.42;;;;;;;;;;5058805;28;20284;-80
2023/12/16 06:42:14;;;;;;;1.75;1.65;;;;;;;;;;5060071;28;20292;-83
2023/12/16 06:44:42;;;;;;;2.97;1.90;;;;;;;;;;5059107;28;20296;-82
2023/12/16 06:47:09;;;;;;;2.40;1.85;;;;;;;;;;5058230;28;20225;-83
2023/12/16 06:49:38;;;;;;;3.03;1.98;;;;;;;;;;5059971;28;20559;-83
2023/12/16 06:52:06;;;;;;;2.40;1.95;;;;;;;;;;5055947;28;20639;-83
2023/12/16 06:54:34;;;;;;;2.60;2.35;;;;;;;;;;5060110;28;20733;-81
2023/12/16 06:57:01;;;;;;;1.98;1.60;;;;;;;;;;5061858;28;20727;-83
2023/12/16 06:59:32;;;;;;;6.82;2.55;;;;;;;;;;5059239;28;20221;-81
2023/12/16 07:01:59;;;;;;;3.17;2.67;;;;;;;;;;5059724;28;20253;-82
2023/12/16 07:04:27;;;;;;;2.28;2.08;;;;;;;;;;5060053;28;20197;-83
2023/12/16 07:06:54;;;;;;;2.60;1.90;;;;;;;;;;5058507;28;20603;-81
2023/12/16 07:09:22;;;;;;;2.78;1.95;;;;;;;;;;5059759;28;20681;-82
2023/12/16 07:11:49;;;;;;;2.95;1.90;;;;;;;;;;5059726;28;20201;-82
2023/12/16 07:14:17;;;;;;;2.65;2.10;;;;;;;;;;5059654;28;20219;-80
2023/12/16 07:16:45;;;;;;;1.80;1.63;;;;;;;;;;5058793;28;20309;-81
2023/12/16 07:19:14;;;;;;;2.80;2.20;;;;;;;;;;5059208;28;20268;-82
2023/12/16 07:21:42;;;;;;;2.42;1.83;;;;;;;;;;5059924;28;20615;-83
2023/12/16 07:24:10;;;;;;;1.92;1.45;;;;;;;;;;5060693;28;20232;-83
2023/12/16 07:26:37;;;;;;;2.10;1.50;;;;;;;;;;5058777;28;20225;-83
2023/12/16 07:29:05;;;;;;;1.80;1.70;;;;;;;;;;5065419;28;20660;-81
2023/12/16 07:31:32;;;;;;;1.52;1.42;;;;;;;;;;5059255;28;20194;-81
2023/12/16 07:34:01;;;;;;;2.80;1.75;;;;;;;;;;5058218;28;20225;-82
2023/12/16 07:36:28;;;;;;;2.83;1.70;;;;;;;;;;5058312;28;20231;-83
2023/12/16 07:38:57;;;;;;;4.60;2.13;;;;;;;;;;5058741;28;20205;-81
2023/12/16 07:41:25;;;;;;;4.30;1.80;;;;;;;;;;5059411;28;20205;-81
2023/12/16 07:43:52;;;;;;;2.03;1.52;;;;;;;;;;5058912;28;20225;-82
2023/12/16 07:46:20;;;;;;;2.00;1.42;;;;;;;;;;5059197;28;20198;-83
2023/12/16 07:48:47;;;;;;;1.92;1.30;;;;;;;;;;5066067;28;20300;-82
2023/12/16 07:51:24;;;;;;;1.60;1.50;;;;;;;;;;5059427;28;20266;-82
2023/12/16 07:53:52;;;;;;;2.40;2.20;;;;;;;;;;5065710;28;20619;-83
2023/12/16 07:56:23;;;;;;;2.25;1.73;;;;;;;;;;5058829;28;20213;-82
2023/12/16 07:58:50;;;;;;;1.85;1.58;;;;;;;;;;5058942;28;20190;-82
2023/12/16 08:01:19;;;;;;;4.53;2.00;;;;;;;;;;5058579;28;20658;-83
2023/12/16 08:03:47;;;;;;;3.03;1.70;;;;;;;;;;5059125;28;20202;-83
2023/12/16 08:06:18;;;;;;;2.10;1.90;;;;;;;;;;5058856;28;20190;-83
2023/12/16 08:08:46;;;;;;;3.00;1.73;;;;;;;;;;5059353;28;20197;-83
2023/12/16 08:11:13;;;;;;;5.40;2.40;;;;;;;;;;5066578;28;20266;-82
2023/12/16 08:13:41;;;;;;;2.97;1.80;;;;;;;;;;5059372;28;20273;-83
2023/12/16 08:16:11;;;;;;;2.65;1.70;;;;;;;;;;5058769;28;20647;-83
2023/12/16 08:18:39;;;;;;;2.22;1.60;;;;;;;;;;5062722;28;20263;-82
2023/12/16 08:21:06;;;;;;;3.60;2.00;;;;;;;;;;5075743;28;20208;-82
2023/12/16 08:23:35;;;;;;;1.40;1.30;;;;;;;;;;5062829;28;20289;-83
2023/12/16 08:26:03;;;;;;;2.28;1.98;;;;;;;;;;5063132;28;20269;-82
2023/12/16 08:28:31;;;;;;;3.25;2.25;;;;;;;;;;5063189;28;20654;-83
2023/12/16 08:30:59;;;;;;;2.70;2.08;;;;;;;;;;5070548;28;20252;-83
2023/12/16 08:33:26;;;;;;;3.55;2.15;;;;;;;;;;5063202;28;20216;-82
2023/12/16 08:35:54;;;;;;;2.50;1.73;;;;;;;;;;5062497;28;20933;-81
2023/12/16 08:38:22;;;;;;;3.58;2.53;;;;;;;;;;5063571;28;20228;-83
2023/12/16 08:40:53;;;;;;;5.28;3.40;;;;;;;;;;5063089;28;20206;-83
2023/12/16 08:43:20;;;;;;;2.35;2.08;;;;;;;;;;5063120;28;20198;-82
2023/12/16 08:45:48;;;;;;;4.07;2.83;;;;;;;;;;5061619;28;20296;-80
2023/12/16 08:48:15;;;;;;;1.75;1.65;;;;;;;;;;5063174;28;20281;-82
2023/12/16 08:50:43;;;;;;;2.00;1.80;;;;;;;;;;5062806;28;20646;-82
2023/12/16 08:53:11;;;;;;;4.05;2.80;;;;;;;;;;5068198;28;20204;-81
2023/12/16 08:55:41;;;;;;;2.75;1.98;;;;;;;;;;5065243;28;20208;-82
2023/12/16 08:58:09;;;;;;;2.45;1.80;;;;;;;;;;5062346;28;20279;-81
2023/12/16 09:00:37;;;;;;;1.80;1.52;;;;;;;;;;5061387;28;20627;-81
2023/12/16 09:03:04;;;;;;;3.65;3.30;;;;;;;;;;5062054;28;20284;-82
2023/12/16 09:05:32;;;;;;;3.42;2.05;;;;;;;;;;5062986;28;20206;-80
2023/12/16 09:08:00;;;;;;;4.65;2.63;;;;;;;;;;5062005;28;20502;-82
2023/12/16 09:10:27;;;;;;;3.97;2.50;;;;;;;;;;5062279;28;20265;-80
2023/12/16 09:12:55;;;;;;;4.90;2.45;;;;;;;;;;5061092;28;20216;-83
2023/12/16 09:15:24;;;;;;;2.65;2.15;;;;;;;;;;5062274;28;20226;-82
2023/12/16 09:17:51;;;;;;;4.47;3.10;;;;;;;;;;5060433;28;20598;-81
2023/12/16 09:20:19;;;;;;;5.22;2.83;;;;;;;;;;5060723;28;20290;-82
2023/12/16 09:22:46;;;;;;;3.90;2.53;;;;;;;;;;5061339;28;20209;-81
2023/12/16 09:25:14;;;;;;;4.20;2.38;;;;;;;;;;5065474;28;20285;-83
2023/12/16 09:27:43;;;;;;;2.33;2.13;;;;;;;;;;5063090;28;20226;-83
2023/12/16 09:30:12;;;;;;;2.47;2.10;;;;;;;;;;5061520;28;20198;-83
2023/12/16 09:32:45;;;;;;;2.88;2.53;;;;;;;;;;5062186;28;20201;-83
2023/12/16 09:35:12;;;;;;;2.95;2.30;;;;;;;;;;5058330;28;20232;-83
2023/12/16 09:37:40;;;;;;;3.33;2.08;;;;;;;;;;5061960;28;20225;-83
2023/12/16 09:40:09;;;;;;;3.13;2.53;;;;;;;;;;5062062;28;20272;-83
2023/12/16 09:42:37;;;;;;;2.20;1.98;;;;;;;;;;5063025;28;20198;-83
2023/12/16 09:45:06;;;;;;;5.18;2.50;;;;;;;;;;5062890;28;20298;-82
2023/12/16 09:47:34;;;;;;;3.53;2.15;;;;;;;;;;5061717;28;20209;-83
2023/12/16 09:50:02;;;;;;;4.47;1.98;;;;;;;;;;5062693;28;20730;-82
2023/12/16 09:52:30;;;;;;;2.13;1.70;;;;;;;;;;5062989;28;20268;-83
2023/12/16 09:54:59;;;;;;;3.67;2.10;;;;;;;;;;5062445;28;20212;-81
2023/12/16 09:57:27;;;;;;;3.65;2.33;;;;;;;;;;5062557;28;20249;-82
2023/12/16 09:59:57;;;;;;;3.80;3.28;;;;;;;;;;5061158;28;20227;-83
2023/12/16 10:02:28;;;;;;;2.05;1.83;;;;;;;;;;5062591;28;20201;-82
2023/12/16 10:04:58;;;;;;;3.30;2.35;;;;;;;;;;5062632;28;20190;-82
2023/12/16 10:07:27;;;;;;;4.90;2.70;;;;;;;;;;5059935;28;20702;-81
2023/12/16 10:09:55;;;;;;;2.45;2.10;;;;;;;;;;5062105;28;20722;-81
2023/12/16 10:12:22;;;;;;;4.30;2.47;;;;;;;;;;5063394;28;20296;-82
2023/12/16 10:14:51;;;;;;;4.43;2.75;;;;;;;;;;5062462;28;20225;-81
2023/12/16 10:17:20;;;;;;;4.40;2.28;;;;;;;;;;5060815;28;20248;-82
2023/12/16 10:19:49;;;;;;;4.25;2.40;;;;;;;;;;5061990;28;20208;-81
2023/12/16 10:22:17;;;;;;;4.53;2.28;;;;;;;;;;5062096;28;20288;-82
2023/12/16 10:24:46;;;;;;;5.07;2.20;;;;;;;;;;5060378;28;20288;-82
2023/12/16 10:27:23;;;;;;;3.95;2.13;;;;;;;;;;5061592;28;20214;-80
2023/12/16 10:29:52;;;;;;;9.05;2.92;;;;;;;;;;5072188;28;20229;-81
2023/12/16 10:32:19;;;;;;;4.75;2.35;;;;;;;;;;5060000;28;20205;-83
2023/12/16 10:34:46;;;;;;;5.10;2.17;;;;;;;;;;5059269;28;20213;-82
2023/12/16 10:37:14;;;;;;;2.45;1.80;;;;;;;;;;5059826;28;20217;-83
2023/12/16 10:39:42;;;;;;;3.63;2.40;;;;;;;;;;5060407;28;20674;-81
2023/12/16 10:42:11;;;;;;;4.43;2.47;;;;;;;;;;5057043;28;20212;-82
2023/12/16 10:44:38;;;;;;;3.55;2.15;;;;;;;;;;5060910;28;20209;-83
2023/12/16 10:47:11;;;;;;;3.75;2.20;;;;;;;;;;5060707;28;20604;-82
2023/12/16 10:49:42;;;;;;;3.45;1.77;;;;;;;;;;5059837;28;20208;-82
2023/12/16 10:52:13;;;;;;;2.60;1.70;;;;;;;;;;5059442;28;20272;-83
2023/12/16 10:54:42;;;;;;;8.07;2.15;;;;;;;;;;5065139;28;20625;-82
2023/12/16 10:57:20;;;;;;;3.75;1.73;;;;;;;;;;5059058;28;20333;-81
2023/12/16 10:59:59;;;;;;;6.15;2.10;;;;;;;;;;5059577;28;20208;-82
2023/12/16 11:02:28;;;;;;;4.28;2.20;;;;;;;;;;5059476;28;20201;-82
2023/12/16 11:05:03;;;;;;;3.88;2.20;;;;;;;;;;5059492;28;20688;-82
2023/12/16 11:07:32;;;;;;;3.58;3.25;;;;;;;;;;5059135;28;20225;-83
2023/12/16 11:10:00;;;;;;;4.05;1.77;;;;;;;;;;5064858;28;20288;-83
2023/12/16 11:12:28;;;;;;;4.93;2.15;;;;;;;;;;5059223;28;20738;-82
2023/12/16 11:14:56;;;;;;;1.85;1.67;;;;;;;;;;5061044;28;20201;-80
2023/12/16 11:17:30;;;;;;;5.32;2.90;;;;;;;;;;5062926;28;20234;-82
2023/12/16 11:20:03;;;;;;;3.58;1.95;;;;;;;;;;5057755;28;20205;-82
2023/12/16 11:22:31;;;;;;;4.18;2.30;;;;;;;;;;5058415;28;20267;-82
2023/12/16 11:24:59;;;;;;;4.43;2.08;;;;;;;;;;5063931;28;20204;-82
2023/12/16 11:27:30;;;;;;;3.90;2.13;;;;;;;;;;5065419;28;20774;-82
2023/12/16 11:29:58;;;;;;;4.53;2.22;;;;;;;;;;5069920;28;20813;-83
2023/12/16 11:32:26;;;;;;;1.73;1.60;;;;;;;;;;5059773;28;20289;-84
2023/12/16 11:34:54;;;;;;;3.28;2.55;;;;;;;;;;5059467;28;20252;-82
2023/12/16 11:37:44;;;;;;;4.10;2.15;;;;;;;;;;5059391;28;20295;-83
2023/12/16 11:40:42;;;;;;;3.45;2.10;;;;;;;;;;5069133;28;20657;-82
2023/12/16 11:43:11;;;;;;;2.00;1.58;;;;;;;;;;5057486;28;20583;-83
2023/12/16 11:45:40;;;;;;;2.63;2.05;;;;;;;;;;5066779;28;20292;-82
2023/12/16 11:48:09;;;;;;;2.40;1.58;;;;;;;;;;5065858;28;20225;-83
2023/12/16 11:50:39;;;;;;;4.70;2.42;;;;;;;;;;5059246;28;20617;-82
2023/12/16 11:53:09;;;;;;;5.28;3.20;;;;;;;;;;5062945;28;20620;-80
2023/12/16 11:55:37;;;;;;;2.08;1.88;;;;;;;;;;5075036;28;20223;-82
2023/12/16 11:58:05;;;;;;;4.13;2.65;;;;;;;;;;5063844;28;20241;-82
2023/12/16 12:00:34;;;;;;;4.13;2.63;;;;;;;;;;5064244;28;20201;-82
2023/12/16 12:03:01;;;;;;;4.70;2.10;;;;;;;;;;5063865;28;20301;-81
2023/12/16 12:05:30;;;;;;;2.80;1.80;;;;;;;;;;5063218;28;20232;-82
2023/12/16 12:07:58;;;;;;;2.45;1.90;;;;;;;;;;5061096;28;20228;-82
2023/12/16 12:10:25;;;;;;;2.15;1.42;;;;;;;;;;5062600;28;20208;-82
2023/12/16 12:12:53;;;;;;;3.95;1.77;;;;;;;;;;5062648;28;20270;-82
2023/12/16 12:15:21;;;;;;;2.58;1.92;;;;;;;;;;5068944;28;20335;-81
2023/12/16 12:17:50;;;;;;;3.97;2.17;;;;;;;;;;5064441;28;20304;-83
2023/12/16 12:20:19;;;;;;;3.72;2.30;;;;;;;;;;5068705;28;20257;-82
2023/12/16 12:22:46;;;;;;;2.15;1.60;;;;;;;;;;5063073;28;20228;-82
2023/12/16 12:25:18;;;;;;;6.65;2.10;;;;;;;;;;5068150;28;20274;-82
2023/12/16 12:27:45;;;;;;;5.72;2.45;;;;;;;;;;5062229;28;20320;-83
2023/12/16 12:30:18;;;;;;;3.75;1.77;;;;;;;;;;5062701;28;20646;-82
2023/12/16 12:32:46;;;;;;;6.25;2.35;;;;;;;;;;5069127;28;20196;-81
2023/12/16 12:35:14;;;;;;;4.50;2.00;;;;;;;;;;5063611;28;20745;-83
2023/12/16 12:37:46;;;;;;;2.08;1.42;;;;;;;;;;5062347;28;20230;-82
2023/12/16 12:40:18;;;;;;;2.53;1.50;;;;;;;;;;5058260;28;20563;-82
2023/12/16 12:42:48;;;;;;;4.57;2.10;;;;;;;;;;5063277;28;20210;-82
2023/12/16 12:45:29;;;;;;;3.10;1.90;;;;;;;;;;5063037;28;20190;-82
2023/12/16 12:48:09;;;;;;;2.47;1.60;;;;;;;;;;5062946;28;20245;-82
2023/12/16 12:50:39;;;;;;;3.03;2.20;;;;;;;;;;5069094;28;20234;-83
2023/12/16 12:53:16;;;;;;;4.68;2.22;;;;;;;;;;5063051;28;20204;-83
2023/12/16 12:55:44;;;;;;;4.13;1.77;;;;;;;;;;5061978;28;20552;-82
2023/12/16 12:58:12;;;;;;;3.45;1.60;;;;;;;;;;5057682;28;20316;-82
2023/12/16 13:00:40;;;;;;;7.03;1.70;;;;;;;;;;5063011;28;20229;-82
2023/12/16 13:03:08;;;;;;;2.53;2.25;;;;;;;;;;5067577;28;20301;-82
2023/12/16 13:05:36;;;;;;;5.57;2.15;;;;;;;;;;5067802;28;20211;-81
2023/12/16 13:08:05;;;;;;;4.30;1.95;;;;;;;;;;5070119;28;20240;-82
2023/12/16 13:10:33;;;;;;;9.45;2.58;;;;;;;;;;5068554;28;20205;-83
2023/12/16 13:13:00;;;;;;;3.20;2.08;;;;;;;;;;5061603;28;20208;-82
2023/12/16 13:15:28;;;;;;;3.38;1.88;;;;;;;;;;5063232;28;20293;-83
2023/12/16 13:17:56;;;;;;;3.42;2.10;;;;;;;;;;5062249;28;20257;-83
2023/12/16 13:20:23;;;;;;;3.33;1.45;;;;;;;;;;5062651;28;20709;-83
2023/12/16 13:22:52;;;;;;;2.25;1.52;;;;;;;;;;5059342;28;20215;-82
2023/12/16 13:25:19;;;;;;;3.20;1.83;;;;;;;;;;5061960;28;20209;-83
2023/12/16 13:27:47;;;;;;;3.30;1.80;;;;;;;;;;5061825;28;20316;-82
2023/12/16 13:30:14;;;;;;;4.63;2.25;;;;;;;;;;5062332;28;20202;-82
2023/12/16 13:32:43;;;;;;;2.28;1.75;;;;;;;;;;5061706;28;20285;-82
2023/12/16 13:35:12;;;;;;;5.38;2.10;;;;;;;;;;5055569;28;20205;-82
2023/12/16 13:37:39;;;;;;;2.35;1.63;;;;;;;;;;5062156;28;20221;-82
2023/12/16 13:40:10;;;;;;;3.75;1.65;;;;;;;;;;5067777;28;20768;-81
2023/12/16 13:42:37;;;;;;;6.88;1.80;;;;;;;;;;5062555;28;20221;-82
2023/12/16 13:45:06;;;;;;;1.83;1.35;;;;;;;;;;5062061;28;20272;-81
2023/12/16 13:47:33;;;;;;;4.22;1.70;;;;;;;;;;5060966;28;20217;-82
2023/12/16 13:50:01;;;;;;;5.95;2.08;;;;;;;;;;5062119;28;20240;-81
2023/12/16 13:52:28;;;;;;;2.38;1.80;;;;;;;;;;5061376;28;20931;-82
2023/12/16 13:54:56;;;;;;;4.18;1.80;;;;;;;;;;5060903;28;20273;-83
2023/12/16 13:57:24;;;;;;;4.28;1.98;;;;;;;;;;5072618;28;20255;-82
2023/12/16 13:59:52;;;;;;;3.25;2.00;;;;;;;;;;5059885;28;21481;-83
2023/12/16 14:02:19;;;;;;;6.40;2.30;;;;;;;;;;5061265;28;20208;-81
2023/12/16 14:04:47;;;;;;;2.92;1.60;;;;;;;;;;5067292;28;20284;-82
2023/12/16 14:07:14;;;;;;;2.70;1.77;;;;;;;;;;5063179;28;20248;-82
2023/12/16 14:09:42;;;;;;;2.53;1.52;;;;;;;;;;5061037;28;20208;-83
2023/12/16 14:12:09;;;;;;;3.42;1.90;;;;;;;;;;5061967;28;20202;-81
2023/12/16 14:14:38;;;;;;;3.28;2.78;;;;;;;;;;5061700;28;20879;-82
2023/12/16 14:17:06;;;;;;;3.80;2.20;;;;;;;;;;5066839;28;20341;-82
2023/12/16 14:19:33;;;;;;;4.40;2.35;;;;;;;;;;5061617;28;20235;-81
2023/12/16 14:22:00;;;;;;;7.95;2.53;;;;;;;;;;5067347;28;20201;-83
2023/12/16 14:24:28;;;;;;;5.40;2.45;;;;;;;;;;5059582;28;20292;-82
2023/12/16 14:26:55;;;;;;;5.57;2.35;;;;;;;;;;5061410;28;20298;-82
2023/12/16 14:29:23;;;;;;;4.28;3.25;;;;;;;;;;5061426;28;20221;-82
2023/12/16 14:31:51;;;;;;;4.50;2.78;;;;;;;;;;5062464;28;20269;-83
2023/12/16 14:34:19;;;;;;;5.15;3.25;;;;;;;;;;5058882;28;20208;-82
2023/12/16 14:36:47;;;;;;;3.80;2.22;;;;;;;;;;5059816;28;20267;-82
2023/12/16 14:39:14;;;;;;;2.28;1.70;;;;;;;;;;5064491;28;20204;-82
2023/12/16 14:41:42;;;;;;;4.88;2.75;;;;;;;;;;5061728;28;20257;-81
2023/12/16 14:44:09;;;;;;;4.55;2.67;;;;;;;;;;5059247;28;20205;-82
2023/12/16 14:46:37;;;;;;;4.82;2.22;;;;;;;;;;5058822;28;20293;-83
2023/12/16 14:49:05;;;;;;;5.13;1.77;;;;;;;;;;5059343;28;20201;-82